createdAt,value
2018-06-22T00:00:04.264Z,76.10
2018-06-22T00:04:08.106Z,74.10
2018-06-22T00:08:11.823Z,78.20
2018-06-22T00:12:15.163Z,74.50
2018-06-22T00:16:18.522Z,76.30
2018-06-22T00:20:21.920Z,75.60
2018-06-22T00:24:25.283Z,74.40
2018-06-22T00:28:28.615Z,77.30
2018-06-22T00:32:31.943Z,74.90
2018-06-22T00:36:35.323Z,74.90
2018-06-22T00:40:38.659Z,77.00
2018-06-22T00:44:42.016Z,76.50
2018-06-22T00:48:46.097Z,76.90
2018-06-22T00:52:49.494Z,77.80
2018-06-22T00:56:52.860Z,78.90
2018-06-22T01:00:56.675Z,76.40
2018-06-22T01:05:00.022Z,77.30
2018-06-22T01:09:03.709Z,77.70
2018-06-22T01:13:07.192Z,77.40
2018-06-22T01:17:13.476Z,76.00
2018-06-22T01:21:16.830Z,75.30
2018-06-22T01:25:20.213Z,78.10
2018-06-22T01:29:28.783Z,78.20
2018-06-22T01:33:32.134Z,76.00
2018-06-22T01:37:35.779Z,77.20
2018-06-22T01:41:39.955Z,76.90
2018-06-22T01:45:43.295Z,75.90
2018-06-22T01:49:46.694Z,78.80
2018-06-22T01:53:50.046Z,76.30
2018-06-22T01:57:53.409Z,76.00
2018-06-22T02:01:56.765Z,77.80
2018-06-22T02:06:00.140Z,77.40
2018-06-22T02:10:03.516Z,77.90
2018-06-22T02:14:07.635Z,81.10
2018-06-22T02:18:11.009Z,77.80
2018-06-22T02:22:14.365Z,77.90
2018-06-22T02:26:17.729Z,79.90
2018-06-22T02:30:21.898Z,76.40
2018-06-22T02:34:25.349Z,77.50
2018-06-22T02:38:28.712Z,76.70
2018-06-22T02:42:32.087Z,80.10
2018-06-22T02:46:35.540Z,75.90
2018-06-22T02:50:39.303Z,79.10
2018-06-22T02:54:42.678Z,75.90
2018-06-22T02:58:46.040Z,76.80
2018-06-22T03:02:49.491Z,78.10
2018-06-22T03:06:52.835Z,78.90
2018-06-22T03:10:56.173Z,78.10
2018-06-22T03:14:59.563Z,77.50
2018-06-22T03:19:02.947Z,80.30
2018-06-22T03:23:06.305Z,76.50
2018-06-22T03:27:09.632Z,78.00
2018-06-22T03:31:12.996Z,76.90
2018-06-22T03:35:16.399Z,78.20
2018-06-22T03:39:19.841Z,79.50
2018-06-22T03:43:23.256Z,76.30
2018-06-22T03:47:26.605Z,77.40
2018-06-22T03:51:30.059Z,77.10
2018-06-22T03:55:33.393Z,77.50
2018-06-22T04:03:39.857Z,80.10
2018-06-22T04:07:43.216Z,79.70
2018-06-22T04:11:46.560Z,77.90
2018-06-22T04:15:49.928Z,77.10
2018-06-22T04:19:53.328Z,79.00
2018-06-22T04:23:56.853Z,78.50
2018-06-22T04:28:00.175Z,79.20
2018-06-22T04:32:03.493Z,77.80
2018-06-22T04:36:06.852Z,78.80
2018-06-22T04:40:10.413Z,81.30
2018-06-22T04:44:13.805Z,80.30
2018-06-22T04:48:17.104Z,78.60
2018-06-22T04:52:20.648Z,79.10
2018-06-22T04:56:23.987Z,82.30
2018-06-22T05:00:27.983Z,78.40
2018-06-22T05:04:31.332Z,78.60
2018-06-22T05:08:34.731Z,79.30
2018-06-22T05:12:38.048Z,78.40
2018-06-22T05:16:41.385Z,78.20
2018-06-22T05:20:44.759Z,78.60
2018-06-22T05:24:49.155Z,78.50
2018-06-22T05:28:52.532Z,80.70
2018-06-22T05:32:55.868Z,78.70
2018-06-22T05:36:59.179Z,78.50
2018-06-22T05:41:02.533Z,79.60
2018-06-22T05:45:05.854Z,78.10
2018-06-22T05:49:09.195Z,78.10
2018-06-22T05:53:12.524Z,77.20
2018-06-22T05:57:15.871Z,78.10
2018-06-22T06:01:19.310Z,77.30
2018-06-22T06:05:22.635Z,79.90
2018-06-22T06:09:26.035Z,79.80
2018-06-22T06:13:29.382Z,79.70
2018-06-22T06:17:32.724Z,81.20
2018-06-22T06:21:36.125Z,79.80
2018-06-22T06:25:39.447Z,77.70
2018-06-22T06:29:42.824Z,78.90
2018-06-22T06:33:46.181Z,79.70
2018-06-22T06:41:52.569Z,79.40
2018-06-22T06:45:55.913Z,80.20
2018-06-22T06:49:59.223Z,78.80
2018-06-22T06:54:02.568Z,77.90
2018-06-22T06:58:12.231Z,78.20
2018-06-22T07:02:15.566Z,78.90
2018-06-22T07:06:18.871Z,80.30
2018-06-22T07:10:22.194Z,78.20
2018-06-22T07:14:25.665Z,78.00
2018-06-22T07:18:28.957Z,77.00
2018-06-22T07:22:32.315Z,80.50
2018-06-22T07:26:36.370Z,80.40
2018-06-22T07:30:39.743Z,77.90
2018-06-22T07:34:43.082Z,78.20
2018-06-22T07:38:46.460Z,82.50
2018-06-22T07:42:49.848Z,81.00
2018-06-22T07:46:53.244Z,81.10
2018-06-22T07:50:56.620Z,78.70
2018-06-22T07:54:59.998Z,80.20
2018-06-22T07:59:03.383Z,78.00
2018-06-22T08:03:06.751Z,77.30
2018-06-22T08:07:10.100Z,81.10
2018-06-22T08:11:13.475Z,81.70
2018-06-22T08:15:16.823Z,78.30
2018-06-22T08:19:20.240Z,78.40
2018-06-22T08:23:23.664Z,80.30
2018-06-22T08:27:27.031Z,80.20
2018-06-22T08:31:30.417Z,84.40
2018-06-22T08:35:33.755Z,78.50
2018-06-22T08:39:37.195Z,77.80
2018-06-22T08:43:40.574Z,82.70
2018-06-22T08:47:44.078Z,78.30
2018-06-22T08:51:47.451Z,78.90
2018-06-22T08:55:50.775Z,78.70
2018-06-22T08:59:54.140Z,83.00
2018-06-22T09:03:57.522Z,82.40
2018-06-22T09:08:00.976Z,78.80
2018-06-22T09:12:04.375Z,77.80
2018-06-22T09:16:07.719Z,78.40
2018-06-22T09:20:11.127Z,79.30
2018-06-22T09:24:14.482Z,77.60
2018-06-22T09:28:17.845Z,77.60
2018-06-22T09:32:21.205Z,77.20
2018-06-22T09:36:24.540Z,77.30
2018-06-22T09:40:27.895Z,77.90
2018-06-22T09:44:35.040Z,79.40
2018-06-22T09:52:41.552Z,80.90
2018-06-22T09:56:44.884Z,77.70
2018-06-22T10:00:52.218Z,77.10
2018-06-22T10:04:55.628Z,82.50
2018-06-22T10:08:58.999Z,79.00
2018-06-22T10:13:02.395Z,79.10
2018-06-22T10:17:05.762Z,79.10
2018-06-22T10:21:09.219Z,78.20
2018-06-22T10:25:12.617Z,78.30
2018-06-22T10:29:15.999Z,77.60
2018-06-22T10:33:19.396Z,77.90
2018-06-22T10:37:22.755Z,78.10
2018-06-22T10:41:26.207Z,78.10
2018-06-22T10:45:29.675Z,78.90
2018-06-22T10:49:33.132Z,78.60
2018-06-22T10:53:36.559Z,77.70
2018-06-22T10:57:40.079Z,76.60
2018-06-22T11:01:43.518Z,78.60
2018-06-22T11:05:46.898Z,77.70
2018-06-22T11:09:50.254Z,77.00
2018-06-22T11:13:53.664Z,76.90
2018-06-22T11:17:57.101Z,76.80
2018-06-22T11:22:00.487Z,76.70
2018-06-22T11:26:03.866Z,76.80
2018-06-22T11:34:10.402Z,77.40
2018-06-22T11:38:13.816Z,76.30
2018-06-22T11:42:17.715Z,77.10
2018-06-22T11:46:21.115Z,76.60
2018-06-22T11:50:24.492Z,76.10
2018-06-22T11:54:27.913Z,76.00
2018-06-22T11:58:31.267Z,76.30
2018-06-22T12:02:34.651Z,76.60
2018-06-22T12:06:38.088Z,77.20
2018-06-22T12:10:41.483Z,76.60
2018-06-22T12:14:44.857Z,77.70
2018-06-22T12:18:48.845Z,76.30
2018-06-22T12:26:55.358Z,75.70
2018-06-22T12:30:58.724Z,76.50
2018-06-22T12:35:08.576Z,75.50
2018-06-22T12:39:13.818Z,74.30
2018-06-22T12:43:17.349Z,75.50
2018-06-22T12:47:20.752Z,75.20
2018-06-22T12:51:25.330Z,73.60
2018-06-22T12:55:28.712Z,74.80
2018-06-22T12:59:32.085Z,73.30
2018-06-22T13:03:35.463Z,74.60
2018-06-22T13:07:38.936Z,72.30
2018-06-22T13:11:42.296Z,71.60
2018-06-22T13:15:45.675Z,72.80
2018-06-22T13:19:49.257Z,70.80
2018-06-22T13:23:52.607Z,67.90
2018-06-22T13:27:56.113Z,72.80
2018-06-22T13:31:59.787Z,71.80
2018-06-22T13:36:03.289Z,68.20
2018-06-22T13:40:06.825Z,70.50
2018-06-22T13:44:11.094Z,70.00
2018-06-22T13:48:14.498Z,69.00
2018-06-22T13:52:17.911Z,69.70
2018-06-22T13:56:21.283Z,68.40
2018-06-22T14:00:25.020Z,72.20
2018-06-22T14:04:33.628Z,69.70
2018-06-22T14:08:37.039Z,72.30
2018-06-22T14:12:40.504Z,71.90
2018-06-22T14:16:45.427Z,71.60
2018-06-22T14:20:48.779Z,71.80
2018-06-22T14:24:52.263Z,68.90
2018-06-22T14:28:55.707Z,70.60
2018-06-22T14:32:59.095Z,71.90
2018-06-22T14:37:02.496Z,73.30
2018-06-22T14:41:06.274Z,72.90
2018-06-22T14:45:09.657Z,71.00
2018-06-22T14:49:13.052Z,71.40
2018-06-22T14:53:21.879Z,70.90
2018-06-22T14:57:30.718Z,72.40
2018-06-22T15:01:39.288Z,69.70
2018-06-22T15:05:48.099Z,68.20
2018-06-22T15:09:51.450Z,70.10
2018-06-22T15:13:54.790Z,70.60
2018-06-22T15:17:58.215Z,68.30
2018-06-22T15:22:01.536Z,69.50
2018-06-22T15:26:04.903Z,66.90
2018-06-22T15:30:08.238Z,67.90
2018-06-22T15:34:16.831Z,68.50
2018-06-22T15:38:25.448Z,68.50
2018-06-22T15:42:34.224Z,67.30
2018-06-22T15:46:42.927Z,66.80
2018-06-22T15:50:51.598Z,67.30
2018-06-22T15:54:59.166Z,64.00
2018-06-22T15:59:02.554Z,62.40
2018-06-22T16:03:11.411Z,67.90
2018-06-22T16:07:14.768Z,66.20
2018-06-22T16:11:18.199Z,59.60
2018-06-22T16:15:26.885Z,62.00
2018-06-22T16:19:35.568Z,63.50
2018-06-22T16:23:44.084Z,62.30
2018-06-22T16:27:51.810Z,63.50
2018-06-22T16:31:55.136Z,63.00
2018-06-22T16:35:58.465Z,65.60
2018-06-22T16:40:01.802Z,64.30
2018-06-22T16:44:05.202Z,64.90
2018-06-22T16:48:29.809Z,63.50
2018-06-22T16:52:33.334Z,63.60
2018-06-22T16:56:37.010Z,64.00
2018-06-22T17:00:40.349Z,66.60
2018-06-22T17:04:43.690Z,66.70
2018-06-22T17:08:52.417Z,62.80
2018-06-22T17:14:01.402Z,65.20
2018-06-22T17:18:10.037Z,65.90
2018-06-22T17:22:13.358Z,63.90
2018-06-22T17:26:16.707Z,65.70
2018-06-22T17:30:20.096Z,66.90
2018-06-22T17:34:23.582Z,66.50
2018-06-22T17:38:26.939Z,67.10
2018-06-22T17:42:30.283Z,66.10
2018-06-22T17:46:33.618Z,67.40
2018-06-22T17:50:37.046Z,64.10
2018-06-22T17:54:40.410Z,66.80
2018-06-22T17:58:47.990Z,67.20
2018-06-22T18:02:56.775Z,67.70
2018-06-22T18:07:05.523Z,67.90
2018-06-22T18:11:14.298Z,67.80
2018-06-22T18:15:18.666Z,68.10
2018-06-22T18:19:22.275Z,67.60
2018-06-22T18:23:25.612Z,66.90
2018-06-22T18:27:29.053Z,67.70
2018-06-22T18:31:33.178Z,68.20
2018-06-22T18:35:36.487Z,67.20
2018-06-22T18:39:39.876Z,66.40
2018-06-22T18:43:49.616Z,66.60
2018-06-22T18:47:58.757Z,68.60
2018-06-22T18:52:08.171Z,68.00
2018-06-22T18:56:17.694Z,68.40
2018-06-22T19:00:27.496Z,68.60
2018-06-22T19:04:32.543Z,68.70
2018-06-22T19:08:37.388Z,68.00
2018-06-22T19:12:41.371Z,68.70
2018-06-22T19:16:45.386Z,68.60
2018-06-22T19:20:49.363Z,69.00
2018-06-22T19:24:53.977Z,69.00
2018-06-22T19:28:58.175Z,69.30
2018-06-22T19:33:02.427Z,69.30
2018-06-22T19:37:07.014Z,69.40
2018-06-22T19:41:11.798Z,69.50
2018-06-22T19:45:21.007Z,69.50
2018-06-22T19:49:31.111Z,69.20
2018-06-22T19:53:40.533Z,69.70
2018-06-22T19:57:44.506Z,69.70
2018-06-22T20:01:49.657Z,69.90
2018-06-22T20:05:53.345Z,69.80
2018-06-22T20:09:58.302Z,70.90
2018-06-22T20:14:01.946Z,69.90
2018-06-22T20:18:06.889Z,70.00
2018-06-22T20:22:11.460Z,70.20
2018-06-22T20:26:15.455Z,70.00
2018-06-22T20:30:19.542Z,70.10
2018-06-22T20:34:28.616Z,70.20
2018-06-22T20:38:38.298Z,70.10
2018-06-22T20:42:47.080Z,70.20
2018-06-22T20:46:55.917Z,70.50
2018-06-22T20:50:59.334Z,69.90
2018-06-22T20:55:02.706Z,70.50
2018-06-22T20:59:06.019Z,70.60
2018-06-22T21:03:09.343Z,70.40
2018-06-22T21:11:15.778Z,70.90
2018-06-22T21:15:19.102Z,70.80
2018-06-22T21:19:22.447Z,70.80
2018-06-22T21:23:25.770Z,70.90
2018-06-22T21:27:34.555Z,70.70
2018-06-22T21:31:43.218Z,70.80
2018-06-22T21:37:54.191Z,70.10
2018-06-22T21:41:57.622Z,71.30
2018-06-22T21:46:01.061Z,70.80
2018-06-22T21:50:04.547Z,71.20
2018-06-22T21:54:07.896Z,71.00
2018-06-22T21:58:11.327Z,72.70
2018-06-22T22:02:14.688Z,73.60
2018-06-22T22:06:18.078Z,72.60
2018-06-22T22:10:26.927Z,71.80
2018-06-22T22:14:30.246Z,71.60
2018-06-22T22:18:33.713Z,74.10
2018-06-22T22:22:37.039Z,71.50
2018-06-22T22:26:40.439Z,71.70
2018-06-22T22:30:43.767Z,71.40
2018-06-22T22:34:47.135Z,72.70
2018-06-22T22:38:50.478Z,72.30
2018-06-22T22:42:53.814Z,71.70
2018-06-22T22:46:57.149Z,72.00
2018-06-22T22:51:00.470Z,72.20
2018-06-22T22:55:03.884Z,72.00
2018-06-22T22:59:07.245Z,72.60
2018-06-22T23:03:10.577Z,74.00
2018-06-22T23:07:13.901Z,72.30
2018-06-22T23:11:17.230Z,72.40
2018-06-22T23:15:20.578Z,72.10
2018-06-22T23:19:23.926Z,72.10
2018-06-22T23:23:42.568Z,71.90
2018-06-22T23:27:45.918Z,73.40
2018-06-22T23:31:49.343Z,72.40
2018-06-22T23:35:52.670Z,73.50
2018-06-22T23:39:55.992Z,73.50
2018-06-22T23:43:59.436Z,72.50
2018-06-22T23:52:05.871Z,72.70
2018-06-22T23:56:09.206Z,73.10
